Weather observations for the past three days for
Shungnak Airport
Metric (Imperial)
Date Time (akdt) Wind (kph) Vis. (km) Weather Sky Cond. Temperature (ºC) Relative Humidity Wind Chill (°C) Heat Index (°C) Pressure Precipitation (cm)
Air Dwpt 6 hour altimeter (cm) sea level (mb) 1 hr 3 hr 6 hr
Max. Min.
10 05:56 S 6 16.09 Mostly Cloudy BKN055 -0.6 -2.8 85% 75.03 1000.6
10 04:56 SW 6 16.09 Overcast OVC055 0 -2.8 82% 75.06 1001.0
10 03:56 SW 7 16.09 Overcast OVC055 0 -2.8 6.1 0 82% -2 75.06 1000.9
10 02:56 S 7 16.09 Overcast OVC050 0.6 -3.3 75% -1 75.06 1001.0
10 01:56 W 7 16.09 Overcast OVC048 2.2 -3.3 67% 0 75.06 1000.9
10 00:56 W 6 16.09 Overcast OVC048 1.7 -2.8 72% 75.03 1000.8
09 23:56 NW 11 16.09 Overcast OVC050 3.9 -1.7 67% 1 75.03 1000.6
09 22:56 E 6 16.09 Overcast OVC050 5.6 -1.1 62% 75.03 1000.5
09 21:56 E 7 16.09 Overcast OVC046 6.1 -1.7 7.2 6.1 58% 5 75.01 1000.4
09 20:56 Vrbl 6 16.09 Overcast OVC046 6.1 -1.7 58% 75.01 1000.3
09 19:56 E 13 16.09 Overcast OVC046 6.1 -1.7 58% 4 75.03 1000.5
09 18:56 SE 11 16.09 Overcast OVC046 6.7 -2.2 53% 5 75.03 1000.6
09 17:56 E 6 16.09 Overcast OVC048 6.7 -2.8 51% 75.03 1000.5
09 16:56 E 13 16.09 Overcast OVC050 7.2 -3.3 48% 5 75.03 1000.8
09 15:56 Vrbl 11 16.09 Mostly Cloudy FEW055 BKN080 6.7 -4.4 7.2 1.1 45% 5 75.08 1001.1
09 14:56 S 7 16.09 Overcast OVC050 6.1 -6.1 42% 5 75.08 1001.3
09 13:56 Calm 16.09 Mostly Cloudy BKN070 6.1 -6.7 40% 75.11 1001.7
09 12:56 Calm 16.09 Overcast OVC045 3.9 -7.8 43% 75.16 1002.2
09 11:56 Calm 16.09 Partly Cloudy SCT044 3.9 -8.3 41% 75.16 1002.4
09 10:56 Calm 16.09 Mostly Cloudy BKN050 2.2 -7.8 48% 75.18 1002.8
09 09:56 Calm 16.09 Mostly Cloudy BKN110 1.1 -7.8 1.1 -5 52% 75.21 1003.1
09 08:56 E 6 16.09 Partly Cloudy SCT090 -1.1 -7.2 64% 75.26 1003.6
09 07:56 Calm 16.09 Fair CLR -2.2 -7.2 69% 75.26 1003.8
09 06:56 SW 6 16.09 Fair CLR -3.9 -7.2 78% 75.26 1003.8
09 05:56 SW 9 16.09 Fair CLR -4.4 -8.3 75% -8 75.31 1004.4
09 04:56 SW 13 16.09 Fair CLR -4.4 -7.8 77% -9 75.34 1004.6
09 03:56 SW 11 16.09 Fair CLR -3.9 -7.2 3.3 -3.9 78% -8 75.36 1005.1
09 02:56 W 9 16.09 Fair CLR -3.3 -6.7 78% -7 75.41 1005.6
09 01:56 W 9 16.09 Fair CLR -2.2 -6.1 75% -5 75.44 1005.9
09 00:56 W 9 16.09 Fair CLR -1.1 -5.6 72% -4 75.46 1006.2
08 23:56 W 13 16.09 Fair CLR -0.6 -4.4 76% -4 75.46 1006.3
08 22:56 NW 15 16.09 Mostly Cloudy BKN100 1.7 -4.4 64% -2 75.49 1006.8
08 21:56 NW 15 16.09 Fair CLR 3.3 -4.4 7.2 3.3 57% 0 75.51 1007.2
08 20:56 NW 22 16.09 Fair CLR 4.4 -5 51% 0 75.57 1007.6
08 19:56 NW 24 16.09 Fair CLR 5.6 -6.1 43% 2 75.62 1008.4
08 18:56 NW 17 16.09 Mostly Cloudy BKN100 5.6 -6.7 41% 3 75.67 1009.2
08 17:56 NW 19 16.09 A Few Clouds FEW100 6.7 -7.8 35% 4 75.72 1009.8
08 16:56 NW 26 G 33 16.09 Fair CLR 6.7 -7.2 37% 3 75.77 1010.5
08 15:56 NW 17 16.09 Fair CLR 6.1 -8.3 6.1 0 35% 3 75.84 1011.5
08 14:56 W 17 16.09 Fair CLR 5.6 -7.8 38% 3 75.9 1012.4
08 13:56 W 15 16.09 Fair CLR 5 -7.2 41% 2 75.97 1013.1
08 12:56 NW 17 16.09 Fair CLR 3.9 -7.2 45% 0 76.05 1014.0
08 11:56 W 15 16.09 Fair CLR 2.8 -6.7 50% -1 76.1 1014.8
08 10:56 W 13 16.09 Fair CLR 1.7 -7.2 52% -2 76.15 1015.5
08 09:56 W 9 16.09 Fair CLR 0 -6.1 0 -6.7 64% -3 76.2 1016.2
08 08:56 SW 6 16.09 Fair CLR -2.2 -6.7 72% 76.23 1016.8
08 07:56 W 7 16.09 Fair CLR -3.9 -6.7 81% -7 76.3 1017.5
08 06:56 SW 7 16.09 Fair CLR -5.6 -7.8 85% -9 76.3 1017.5
08 05:56 SW 9 16.09 Fair CLR -6.7 -7.8 92% -11 76.33 1018.1
08 04:56 SW 13 16.09 Fair CLR -6.7 -7.8 92% -12 76.35 1018.4
08 03:56 SW 9 16.09 Fair CLR -5.6 -7.2 2.8 -5.6 89% -9 76.38 1018.8
08 02:56 SW 9 16.09 Fair CLR -4.4 -6.7 84% -8 76.4 1019.0
08 01:56 W 7 16.09 Fair CLR -2.8 -6.7 75% -5 76.43 1019.3
08 00:56 N 6 16.09 Fair CLR -1.7 -6.7 69% 76.43 1019.4
07 23:56 Calm 16.09 Fair CLR 0 -7.2 59% 76.45 1019.5
07 22:56 NW 6 16.09 Fair CLR 1.7 -8.3 48% 76.45 1019.6
07 21:56 Calm 16.09 Fair CLR 2.8 -8.9 2.8 1.1 42% 76.45 1019.6
07 20:56 NE 6 16.09 Partly Cloudy SCT070 2.2 -7.8 48% 76.45 1019.7
07 19:56 Calm 16.09 Overcast FEW050 OVC070 2.8 -8.9 42% 76.48 1020.0
07 18:56 S 7 16.09 Overcast FEW046 OVC060 1.7 -8.9 46% -0 76.48 1020.0
07 17:56 Calm 16.09 Overcast BKN060 OVC070 2.2 -8.3 46% 76.48 1019.9
07 16:56 Calm 16.09 Overcast BKN049 OVC075 1.7 -8.9 46% 76.48 1019.9
07 15:56 Calm 16.09 Overcast BKN049 OVC080 1.1 -8.9 1.7 -2.8 48% 76.5 1020.2
07 14:56 Calm 16.09 Overcast BKN042 OVC080 0 -9.4 50% 76.5 1020.5
07 13:56 Vrbl 9 16.09 Overcast BKN040 BKN060 OVC080 0 -7.8 56% -3 76.53 1020.5
07 12:56 Calm 16.09 Overcast FEW030 OVC080 1.7 -7.8 50% 76.5 1020.5
07 11:56 E 13 16.09 Overcast FEW024 OVC070 0 -7.2 59% -4 76.53 1020.6
07 10:56 E 9 14.48 Overcast BKN019 BKN039 OVC070 -1.7 -6.1 72% -5 76.5 1020.4
07 09:56 E 13 14.48 Overcast FEW014 OVC070 -2.8 -6.1 -2.8 -5.6 78% -7 76.5 1020.2
07 08:56 E 9 14.48 Light Snow SCT010 OVC065 -3.9 -5.6 88% -7 76.48 1019.9
07 07:56 E 13 6.44 Light Snow Fog/Mist BKN008 BKN034 OVC043 -4.4 -5.6 91% -9 76.43 1019.5
07 06:56 Calm 4.02 Light Snow Fog/Mist SCT010 OVC016 -5 -6.1 92% 76.4 1019.1
Date Time (akdt) Wind (kph) Vis. (km) Weather Sky Cond. Air Dwpt Max. Min. Relative Humidity Wind Chill (°C) Heat Index (°C) altimeter (cm) sea level (mb) 1 hr 3 hr 6 hr
6 hour
Temperature (ºC) Pressure Precipitation (cm)